createdAt,value
2018-09-03T00:00:33.931Z,15.54
2018-09-03T00:03:36.172Z,15.44
2018-09-03T00:06:38.584Z,15.25
2018-09-03T00:09:41.715Z,15.03
2018-09-03T00:12:44.027Z,14.88
2018-09-03T00:15:46.374Z,15.01
2018-09-03T00:18:48.580Z,15.07
2018-09-03T00:21:50.863Z,15.06
2018-09-03T00:24:53.151Z,15.03
2018-09-03T00:27:55.361Z,15.11
2018-09-03T00:31:03.299Z,15.19
2018-09-03T00:34:11.033Z,15.25
2018-09-03T00:37:18.818Z,15.29
2018-09-03T00:40:26.573Z,15.33
2018-09-03T00:44:34.926Z,15.23
2018-09-03T00:47:37.185Z,15.20
2018-09-03T00:50:40.793Z,15.16
2018-09-03T00:53:43.029Z,15.22
2018-09-03T00:56:45.237Z,15.30
2018-09-03T00:59:47.483Z,15.29
2018-09-03T01:02:49.679Z,15.27
2018-09-03T01:05:51.975Z,15.29
2018-09-03T01:08:54.147Z,15.28
2018-09-03T01:11:56.360Z,15.28
2018-09-03T01:14:58.607Z,15.25
2018-09-03T01:18:01.810Z,15.26
2018-09-03T01:21:03.995Z,15.26
2018-09-03T01:24:06.484Z,15.26
2018-09-03T01:27:08.679Z,15.30
2018-09-03T01:30:10.986Z,15.31
2018-09-03T01:33:13.182Z,15.33
2018-09-03T01:36:15.668Z,15.32
2018-09-03T01:39:18.031Z,15.31
2018-09-03T01:42:20.263Z,15.37
2018-09-03T01:45:22.458Z,15.34
2018-09-03T01:48:24.639Z,15.26
2018-09-03T01:51:26.832Z,15.13
2018-09-03T01:54:29.086Z,14.96
2018-09-03T01:57:31.306Z,14.76
2018-09-03T02:00:33.452Z,14.59
2018-09-03T02:03:35.834Z,14.55
2018-09-03T02:06:38.128Z,14.52
2018-09-03T02:09:40.344Z,14.47
2018-09-03T02:12:42.552Z,14.47
2018-09-03T02:15:44.824Z,14.49
2018-09-03T02:18:47.053Z,14.53
2018-09-03T02:21:49.243Z,14.57
2018-09-03T02:24:51.389Z,14.62
2018-09-03T02:27:53.823Z,14.65
2018-09-03T02:30:56.068Z,14.68
2018-09-03T02:33:58.317Z,14.71
2018-09-03T02:37:00.511Z,14.78
2018-09-03T02:40:02.871Z,14.79
2018-09-03T02:43:05.133Z,14.82
2018-09-03T02:46:07.324Z,14.85
2018-09-03T02:49:09.564Z,14.84
2018-09-03T02:52:11.894Z,14.87
2018-09-03T02:55:14.098Z,14.85
2018-09-03T02:58:16.416Z,14.85
2018-09-03T03:01:18.660Z,14.87
2018-09-03T03:04:20.830Z,14.91
2018-09-03T03:07:23.134Z,14.98
2018-09-03T03:10:25.438Z,15.02
2018-09-03T03:13:27.682Z,15.03
2018-09-03T03:16:30.142Z,15.06
2018-09-03T03:19:32.526Z,15.09
2018-09-03T03:22:34.846Z,15.11
2018-09-03T03:25:37.016Z,15.12
2018-09-03T03:28:39.245Z,15.14
2018-09-03T03:31:41.582Z,15.12
2018-09-03T03:34:43.743Z,15.09
2018-09-03T03:37:47.920Z,14.96
2018-09-03T03:40:50.131Z,14.90
2018-09-03T03:43:52.286Z,14.90
2018-09-03T03:46:54.540Z,14.97
2018-09-03T03:49:56.740Z,14.92
2018-09-03T03:52:59.024Z,14.85
2018-09-03T03:56:01.170Z,14.84
2018-09-03T03:59:03.444Z,14.91
2018-09-03T04:02:05.827Z,14.89
2018-09-03T04:05:08.051Z,14.89
2018-09-03T04:08:10.229Z,14.97
2018-09-03T04:11:12.386Z,15.01
2018-09-03T04:14:14.545Z,15.05
2018-09-03T04:17:16.795Z,15.09
2018-09-03T04:20:18.941Z,15.13
2018-09-03T04:23:21.309Z,15.16
2018-09-03T04:26:23.420Z,15.18
2018-09-03T04:29:25.684Z,15.20
2018-09-03T04:32:27.954Z,15.17
2018-09-03T04:35:30.821Z,15.16
2018-09-03T04:38:33.064Z,15.19
2018-09-03T04:41:35.333Z,15.18
2018-09-03T04:44:37.544Z,15.21
2018-09-03T04:47:39.781Z,15.19
2018-09-03T04:50:41.910Z,15.17
2018-09-03T04:53:44.203Z,15.20
2018-09-03T04:56:46.375Z,15.23
2018-09-03T04:59:48.593Z,15.27
2018-09-03T05:02:50.769Z,15.29
2018-09-03T05:05:53.036Z,15.29
2018-09-03T05:08:55.229Z,15.30
2018-09-03T05:11:57.475Z,15.32
2018-09-03T05:14:59.642Z,15.28
2018-09-03T05:18:01.875Z,15.23
2018-09-03T05:21:04.154Z,15.25
2018-09-03T05:24:06.333Z,15.24
2018-09-03T05:27:08.540Z,15.29
2018-09-03T05:30:10.832Z,15.40
2018-09-03T05:33:13.144Z,15.42
2018-09-03T05:36:15.611Z,15.50
2018-09-03T05:39:17.856Z,15.48
2018-09-03T05:42:20.081Z,15.55
2018-09-03T05:45:22.279Z,15.65
2018-09-03T05:48:24.548Z,15.74
2018-09-03T05:51:26.776Z,15.78
2018-09-03T05:54:28.923Z,15.82
2018-09-03T05:57:31.172Z,15.86
2018-09-03T06:00:33.469Z,15.88
2018-09-03T06:03:35.681Z,15.94
2018-09-03T06:06:37.951Z,15.93
2018-09-03T06:09:40.161Z,15.83
2018-09-03T06:12:42.520Z,15.81
2018-09-03T06:15:44.934Z,15.94
2018-09-03T06:18:48.187Z,16.00
2018-09-03T06:21:50.464Z,15.94
2018-09-03T06:24:52.895Z,15.84
2018-09-03T06:27:55.235Z,15.95
2018-09-03T06:30:57.460Z,16.02
2018-09-03T06:33:59.634Z,16.16
2018-09-03T06:37:01.825Z,16.30
2018-09-03T06:40:03.995Z,16.46
2018-09-03T06:43:06.468Z,16.57
2018-09-03T06:46:08.903Z,16.63
2018-09-03T06:49:11.093Z,16.60
2018-09-03T06:52:13.391Z,16.59
2018-09-03T06:55:15.554Z,16.53
2018-09-03T06:58:17.951Z,16.43
2018-09-03T07:01:20.213Z,16.33
2018-09-03T07:04:22.492Z,16.44
2018-09-03T07:07:24.623Z,16.40
2018-09-03T07:10:26.939Z,16.40
2018-09-03T07:13:29.147Z,16.46
2018-09-03T07:16:31.421Z,16.51
2018-09-03T07:19:33.611Z,16.67
2018-09-03T07:22:35.766Z,16.72
2018-09-03T07:25:37.988Z,16.87
2018-09-03T07:28:40.235Z,16.90
2018-09-03T07:31:42.496Z,17.12
2018-09-03T07:34:44.781Z,17.50
2018-09-03T07:37:47.008Z,17.86
2018-09-03T07:40:49.263Z,18.11
2018-09-03T07:43:51.463Z,18.14
2018-09-03T07:46:53.646Z,18.27
2018-09-03T07:49:55.807Z,18.66
2018-09-03T07:52:57.970Z,18.38
2018-09-03T07:56:00.187Z,18.28
2018-09-03T07:59:02.664Z,18.42
2018-09-03T08:02:05.215Z,18.23
2018-09-03T08:05:07.563Z,18.33
2018-09-03T08:08:09.751Z,18.53
2018-09-03T08:11:12.137Z,18.82
2018-09-03T08:14:14.409Z,18.67
2018-09-03T08:17:47.272Z,18.65
2018-09-03T08:20:49.503Z,18.80
2018-09-03T08:23:51.633Z,19.16
2018-09-03T08:26:53.850Z,18.84
2018-09-03T08:29:56.041Z,18.93
2018-09-03T08:32:58.215Z,19.28
2018-09-03T08:36:00.440Z,19.79
2018-09-03T08:39:04.317Z,19.98
2018-09-03T08:42:07.324Z,19.71
2018-09-03T08:45:09.771Z,19.93
2018-09-03T08:48:11.955Z,20.20
2018-09-03T08:51:14.144Z,19.74
2018-09-03T08:54:16.291Z,19.70
2018-09-03T08:57:18.536Z,19.50
2018-09-03T09:00:20.796Z,18.99
2018-09-03T09:03:28.604Z,19.09
2018-09-03T09:06:30.803Z,19.16
2018-09-03T09:09:33.111Z,19.29
2018-09-03T09:12:35.348Z,19.25
2018-09-03T09:15:37.484Z,19.26
2018-09-03T09:18:39.802Z,19.19
2018-09-03T09:21:42.071Z,19.38
2018-09-03T09:24:44.283Z,19.63
2018-09-03T09:27:46.494Z,19.98
2018-09-03T09:30:48.722Z,20.20
2018-09-03T09:33:50.973Z,20.12
2018-09-03T09:36:53.407Z,19.70
2018-09-03T09:39:55.628Z,19.99
2018-09-03T09:42:58.272Z,20.20
2018-09-03T09:46:01.440Z,20.10
2018-09-03T09:49:03.631Z,19.84
2018-09-03T09:52:05.892Z,19.90
2018-09-03T09:55:08.132Z,19.74
2018-09-03T09:58:10.329Z,19.77
2018-09-03T10:01:18.005Z,19.69
2018-09-03T10:04:22.176Z,19.57
2018-09-03T10:07:24.433Z,19.45
2018-09-03T10:10:26.780Z,19.87
2018-09-03T10:13:29.104Z,19.86
2018-09-03T10:16:31.370Z,20.28
2018-09-03T10:19:33.563Z,19.71
2018-09-03T10:22:35.768Z,19.67
2018-09-03T10:25:37.948Z,19.79
2018-09-03T10:28:40.209Z,19.95
2018-09-03T10:31:42.413Z,19.73
2018-09-03T10:34:44.719Z,19.99
2018-09-03T10:37:47.108Z,20.05
2018-09-03T10:40:49.295Z,19.93
2018-09-03T10:43:51.446Z,19.93
2018-09-03T10:46:53.731Z,20.23
2018-09-03T10:49:56.439Z,20.30
2018-09-03T10:52:58.652Z,20.13
2018-09-03T10:56:00.931Z,20.80
2018-09-03T10:59:03.099Z,21.64
2018-09-03T11:02:05.452Z,21.89
2018-09-03T11:05:07.620Z,22.66
2018-09-03T11:08:18.965Z,23.42
2018-09-03T11:11:21.228Z,23.30
2018-09-03T11:14:23.493Z,22.37
2018-09-03T11:17:25.988Z,22.35
2018-09-03T11:20:29.243Z,22.03
2018-09-03T11:23:32.587Z,21.38
2018-09-03T11:26:34.768Z,21.79
2018-09-03T11:29:37.912Z,21.25
2018-09-03T11:32:44.668Z,21.30
2018-09-03T11:35:46.922Z,20.97
2018-09-03T11:38:49.165Z,21.58
2018-09-03T11:41:51.311Z,21.12
2018-09-03T11:44:53.490Z,20.67
2018-09-03T11:47:55.926Z,20.52
2018-09-03T11:50:58.231Z,20.74
2018-09-03T11:54:00.480Z,20.71
2018-09-03T11:57:02.803Z,20.69
2018-09-03T12:00:06.169Z,20.95
2018-09-03T12:03:08.416Z,20.45
2018-09-03T12:06:10.821Z,20.46
2018-09-03T12:09:12.991Z,20.47
2018-09-03T12:12:15.417Z,20.23
2018-09-03T12:15:24.620Z,20.21
2018-09-03T12:18:26.803Z,20.25
2018-09-03T12:21:29.024Z,20.23
2018-09-03T12:24:31.300Z,20.25
2018-09-03T12:27:33.536Z,20.65
2018-09-03T12:30:35.915Z,20.79
2018-09-03T12:33:38.193Z,20.96
2018-09-03T12:36:40.587Z,20.73
2018-09-03T12:39:42.817Z,20.88
2018-09-03T12:42:45.010Z,21.17
2018-09-03T12:45:53.838Z,21.27
2018-09-03T12:48:56.236Z,21.33
2018-09-03T12:51:58.638Z,21.20
2018-09-03T12:55:00.890Z,21.33
2018-09-03T12:58:03.744Z,21.11
2018-09-03T13:01:06.106Z,20.75
2018-09-03T13:04:08.367Z,20.69
2018-09-03T13:07:10.640Z,20.72
2018-09-03T13:10:12.977Z,20.52
2018-09-03T13:13:15.180Z,20.52
2018-09-03T13:16:17.455Z,20.49
2018-09-03T13:19:19.632Z,20.51
2018-09-03T13:22:21.806Z,20.38
2018-09-03T13:25:24.072Z,19.90
2018-09-03T13:28:26.302Z,19.56
2018-09-03T13:31:28.439Z,19.62
2018-09-03T13:34:30.741Z,19.93
2018-09-03T13:37:33.135Z,20.56
2018-09-03T13:40:35.407Z,20.90
2018-09-03T13:43:37.892Z,20.87
2018-09-03T13:46:40.141Z,21.08
2018-09-03T13:49:42.322Z,21.20
2018-09-03T13:55:55.624Z,21.20
2018-09-03T13:58:57.850Z,21.00
2018-09-03T14:02:00.098Z,21.17
2018-09-03T14:05:02.326Z,21.36
2018-09-03T14:08:04.556Z,21.60
2018-09-03T14:11:06.803Z,21.59
2018-09-03T14:14:09.143Z,21.95
2018-09-03T14:17:11.455Z,22.18
2018-09-03T14:20:13.666Z,22.04
2018-09-03T14:23:15.984Z,21.60
2018-09-03T14:26:18.175Z,21.22
2018-09-03T14:29:20.328Z,20.90
2018-09-03T14:32:22.687Z,20.55
2018-09-03T14:35:25.015Z,20.39
2018-09-03T14:38:27.356Z,20.32
2018-09-03T14:41:29.596Z,20.30
2018-09-03T14:44:31.828Z,20.27
2018-09-03T14:47:34.048Z,20.42
2018-09-03T14:50:36.259Z,20.44
2018-09-03T14:53:38.796Z,20.61
2018-09-03T14:56:41.107Z,20.99
2018-09-03T14:59:43.432Z,21.11
2018-09-03T15:02:45.871Z,21.28
2018-09-03T15:05:48.228Z,21.56
2018-09-03T15:08:50.417Z,21.60
2018-09-03T15:11:52.650Z,21.24
2018-09-03T15:14:54.959Z,21.16
2018-09-03T15:17:57.170Z,20.99
2018-09-03T15:20:59.471Z,20.78
2018-09-03T15:24:02.035Z,20.80
2018-09-03T15:27:04.451Z,20.69
2018-09-03T15:30:06.792Z,20.53
2018-09-03T15:33:09.012Z,20.35
2018-09-03T15:36:11.447Z,20.42
2018-09-03T15:39:13.737Z,20.50
2018-09-03T15:42:16.006Z,20.28
2018-09-03T15:45:18.308Z,20.33
2018-09-03T15:48:20.679Z,20.45
2018-09-03T15:51:23.117Z,20.43
2018-09-03T15:54:25.336Z,20.64
2018-09-03T15:57:27.670Z,20.56
2018-09-03T16:00:30.065Z,20.47
2018-09-03T16:03:32.227Z,20.35
2018-09-03T16:06:34.516Z,20.21
2018-09-03T16:09:36.650Z,19.99
2018-09-03T16:12:38.864Z,19.81
2018-09-03T16:15:41.154Z,19.77
2018-09-03T16:18:43.484Z,19.80
2018-09-03T16:21:45.681Z,19.78
2018-09-03T16:24:47.939Z,19.87
2018-09-03T16:27:50.138Z,19.86
2018-09-03T16:30:52.263Z,19.84
2018-09-03T16:33:54.522Z,19.68
2018-09-03T16:36:56.723Z,19.74
2018-09-03T16:39:59.049Z,19.73
2018-09-03T16:43:01.355Z,19.68
2018-09-03T16:46:03.650Z,19.59
2018-09-03T16:49:06.031Z,19.55
2018-09-03T16:52:08.187Z,19.52
2018-09-03T16:55:10.425Z,19.53
2018-09-03T16:58:12.625Z,19.50
2018-09-03T17:01:15.115Z,19.50
2018-09-03T17:04:17.293Z,19.58
2018-09-03T17:07:19.718Z,19.60
2018-09-03T17:10:21.893Z,19.54
2018-09-03T17:13:24.063Z,19.49
2018-09-03T17:16:26.229Z,19.48
2018-09-03T17:19:28.453Z,19.40
2018-09-03T17:22:30.724Z,19.33
2018-09-03T17:25:32.938Z,19.31
2018-09-03T17:28:35.129Z,19.32
2018-09-03T17:31:37.392Z,19.25
2018-09-03T17:34:39.672Z,19.19
2018-09-03T17:37:41.888Z,19.02
2018-09-03T17:40:44.092Z,18.91
2018-09-03T17:43:46.271Z,18.93
2018-09-03T17:46:48.472Z,18.90
2018-09-03T17:49:50.813Z,18.80
2018-09-03T17:52:53.019Z,18.74
2018-09-03T17:55:55.279Z,18.76
2018-09-03T17:58:57.570Z,18.93
2018-09-03T18:01:59.814Z,18.83
2018-09-03T18:05:03.613Z,18.85
2018-09-03T18:08:05.927Z,18.79
2018-09-03T18:11:08.265Z,18.75
2018-09-03T18:14:10.684Z,18.72
2018-09-03T18:17:13.172Z,18.70
2018-09-03T18:20:15.443Z,18.60
2018-09-03T18:23:17.711Z,18.56
2018-09-03T18:26:19.997Z,18.54
2018-09-03T18:29:22.223Z,18.45
2018-09-03T18:32:24.804Z,18.44
2018-09-03T18:35:27.284Z,18.44
2018-09-03T18:38:29.540Z,18.41
2018-09-03T18:41:31.764Z,18.39
2018-09-03T18:44:33.951Z,18.33
2018-09-03T18:47:36.167Z,18.30
2018-09-03T18:50:39.907Z,18.27
2018-09-03T18:53:42.104Z,18.26
2018-09-03T18:56:44.324Z,18.26
2018-09-03T18:59:46.654Z,18.27
2018-09-03T19:02:48.824Z,18.30
2018-09-03T19:05:51.135Z,18.33
2018-09-03T19:08:53.364Z,18.30
2018-09-03T19:11:55.560Z,18.24
2018-09-03T19:14:57.728Z,18.21
2018-09-03T19:17:59.977Z,18.14
2018-09-03T19:21:02.444Z,18.09
2018-09-03T19:24:04.630Z,18.06
2018-09-03T19:27:07.130Z,18.04
2018-09-03T19:30:09.472Z,18.04
2018-09-03T19:33:12.588Z,18.05
2018-09-03T19:36:14.851Z,18.04
2018-09-03T19:39:17.138Z,18.02
2018-09-03T19:42:19.412Z,18.04
2018-09-03T19:45:21.827Z,18.01
2018-09-03T19:48:24.040Z,18.03
2018-09-03T19:51:26.445Z,18.01
2018-09-03T19:54:28.759Z,18.01
2018-09-03T19:57:30.994Z,18.01
2018-09-03T20:00:33.341Z,18.02
2018-09-03T20:03:35.658Z,18.02
2018-09-03T20:06:37.959Z,18.02
2018-09-03T20:09:40.480Z,17.99
2018-09-03T20:12:42.745Z,17.93
2018-09-03T20:15:44.981Z,17.88
2018-09-03T20:18:47.172Z,17.85
2018-09-03T20:21:49.608Z,17.85
2018-09-03T20:24:51.865Z,17.85
2018-09-03T20:27:54.100Z,17.84
2018-09-03T20:30:56.401Z,17.84
2018-09-03T20:33:58.698Z,17.86
2018-09-03T20:37:01.195Z,17.84
2018-09-03T20:40:03.537Z,17.83
2018-09-03T20:43:05.941Z,17.84
2018-09-03T20:46:08.089Z,17.79
2018-09-03T20:49:10.292Z,17.72
2018-09-03T20:52:12.440Z,17.62
2018-09-03T20:55:14.847Z,17.49
2018-09-03T20:58:17.277Z,17.39
2018-09-03T21:01:19.685Z,17.31
2018-09-03T21:04:21.956Z,17.23
2018-09-03T21:07:24.196Z,17.16
2018-09-03T21:10:26.423Z,17.11
2018-09-03T21:13:28.728Z,17.06
2018-09-03T21:16:30.948Z,17.02
2018-09-03T21:19:33.143Z,16.97
2018-09-03T21:22:35.507Z,16.93
2018-09-03T21:25:37.744Z,16.83
2018-09-03T21:28:39.939Z,16.72
2018-09-03T21:31:42.062Z,16.60
2018-09-03T21:34:44.271Z,16.49
2018-09-03T21:37:46.510Z,16.45
2018-09-03T21:40:48.720Z,16.40
2018-09-03T21:43:51.031Z,16.40
2018-09-03T21:46:53.520Z,16.37
2018-09-03T21:49:55.682Z,16.35
2018-09-03T21:52:57.970Z,16.29
2018-09-03T21:56:00.750Z,16.25
2018-09-03T21:59:03.028Z,16.20
2018-09-03T22:02:07.778Z,16.20
2018-09-03T22:05:09.984Z,16.19
2018-09-03T22:08:12.182Z,16.27
2018-09-03T22:11:14.554Z,16.39
2018-09-03T22:14:16.734Z,16.50
2018-09-03T22:17:18.980Z,16.59
2018-09-03T22:20:21.260Z,16.70
2018-09-03T22:23:23.382Z,16.80
2018-09-03T22:26:25.685Z,16.89
2018-09-03T22:29:29.059Z,16.94
2018-09-03T22:32:31.341Z,17.00
2018-09-03T22:35:33.893Z,17.05
2018-09-03T22:38:36.213Z,17.05
2018-09-03T22:41:38.548Z,17.03
2018-09-03T22:44:40.762Z,16.99
2018-09-03T22:47:42.983Z,16.86
2018-09-03T22:50:45.154Z,16.74
2018-09-03T22:53:47.339Z,16.69
2018-09-03T22:56:49.498Z,16.73
2018-09-03T22:59:51.863Z,16.79
2018-09-03T23:02:54.027Z,16.78
2018-09-03T23:05:56.243Z,16.71
2018-09-03T23:08:58.527Z,16.66
2018-09-03T23:12:00.706Z,16.64
2018-09-03T23:15:02.928Z,16.66
2018-09-03T23:18:05.154Z,16.68
2018-09-03T23:21:07.447Z,16.67
2018-09-03T23:24:09.639Z,16.71
2018-09-03T23:27:11.826Z,16.70
2018-09-03T23:30:14.112Z,16.68
2018-09-03T23:33:16.244Z,16.72
2018-09-03T23:36:18.439Z,16.76
2018-09-03T23:39:20.835Z,16.77
2018-09-03T23:42:23.083Z,16.80
2018-09-03T23:45:25.345Z,16.80
2018-09-03T23:48:27.559Z,16.85
2018-09-03T23:51:29.847Z,16.89
2018-09-03T23:54:32.052Z,16.92
2018-09-03T23:57:34.314Z,16.92
